sensor_id;sensor_type;location;lat;lon;timestamp;P1;durP1;ratioP1;P2;durP2;ratioP2
13605;SDS011;6874;52.084;5.090;2023-03-01T00:01:58;5.93;;;5.73;;
13605;SDS011;6874;52.084;5.090;2023-03-01T00:04:24;7.00;;;6.80;;
13605;SDS011;6874;52.084;5.090;2023-03-01T00:06:49;6.80;;;6.60;;
13605;SDS011;6874;52.084;5.090;2023-03-01T00:09:15;6.83;;;6.63;;
13605;SDS011;6874;52.084;5.090;2023-03-01T00:11:40;7.43;;;7.23;;
13605;SDS011;6874;52.084;5.090;2023-03-01T00:14:06;4.90;;;4.80;;
13605;SDS011;6874;52.084;5.090;2023-03-01T00:16:33;6.30;;;6.10;;
13605;SDS011;6874;52.084;5.090;2023-03-01T00:19:00;6.43;;;6.23;;
13605;SDS011;6874;52.084;5.090;2023-03-01T00:21:26;6.43;;;6.23;;
13605;SDS011;6874;52.084;5.090;2023-03-01T00:23:53;7.17;;;6.97;;
13605;SDS011;6874;52.084;5.090;2023-03-01T00:26:20;7.23;;;7.03;;
13605;SDS011;6874;52.084;5.090;2023-03-01T00:28:49;7.60;;;7.40;;
13605;SDS011;6874;52.084;5.090;2023-03-01T00:31:19;6.43;;;6.23;;
13605;SDS011;6874;52.084;5.090;2023-03-01T00:33:47;5.87;;;5.67;;
13605;SDS011;6874;52.084;5.090;2023-03-01T00:36:13;6.07;;;5.90;;
13605;SDS011;6874;52.084;5.090;2023-03-01T00:38:42;6.50;;;6.30;;
13605;SDS011;6874;52.084;5.090;2023-03-01T00:41:10;6.70;;;6.50;;
13605;SDS011;6874;52.084;5.090;2023-03-01T00:43:40;6.67;;;6.47;;
13605;SDS011;6874;52.084;5.090;2023-03-01T00:46:07;6.80;;;6.60;;
13605;SDS011;6874;52.084;5.090;2023-03-01T00:48:34;6.53;;;6.33;;
13605;SDS011;6874;52.084;5.090;2023-03-01T00:51:04;6.50;;;6.30;;
13605;SDS011;6874;52.084;5.090;2023-03-01T00:53:31;6.20;;;6.00;;
13605;SDS011;6874;52.084;5.090;2023-03-01T00:55:57;6.60;;;6.40;;
13605;SDS011;6874;52.084;5.090;2023-03-01T00:58:23;4.97;;;4.87;;
13605;SDS011;6874;52.084;5.090;2023-03-01T01:00:49;4.90;;;4.80;;
13605;SDS011;6874;52.084;5.090;2023-03-01T01:03:15;6.10;;;5.90;;
13605;SDS011;6874;52.084;5.090;2023-03-01T01:05:40;6.33;;;6.13;;
13605;SDS011;6874;52.084;5.090;2023-03-01T01:08:06;4.90;;;4.80;;
13605;SDS011;6874;52.084;5.090;2023-03-01T01:10:33;4.63;;;4.53;;
13605;SDS011;6874;52.084;5.090;2023-03-01T01:12:59;5.17;;;5.07;;
13605;SDS011;6874;52.084;5.090;2023-03-01T01:15:25;6.60;;;6.40;;
13605;SDS011;6874;52.084;5.090;2023-03-01T01:17:50;6.50;;;6.30;;
13605;SDS011;6874;52.084;5.090;2023-03-01T01:20:16;6.20;;;6.00;;
13605;SDS011;6874;52.084;5.090;2023-03-01T01:22:42;6.23;;;6.03;;
13605;SDS011;6874;52.084;5.090;2023-03-01T01:25:08;6.13;;;5.93;;
13605;SDS011;6874;52.084;5.090;2023-03-01T01:27:35;5.77;;;5.57;;
13605;SDS011;6874;52.084;5.090;2023-03-01T01:30:01;5.83;;;5.67;;
13605;SDS011;6874;52.084;5.090;2023-03-01T01:32:28;5.57;;;5.47;;
13605;SDS011;6874;52.084;5.090;2023-03-01T01:34:54;5.17;;;5.07;;
13605;SDS011;6874;52.084;5.090;2023-03-01T01:37:19;5.20;;;5.10;;
13605;SDS011;6874;52.084;5.090;2023-03-01T01:39:45;6.40;;;6.20;;
13605;SDS011;6874;52.084;5.090;2023-03-01T01:42:13;5.77;;;5.60;;
13605;SDS011;6874;52.084;5.090;2023-03-01T01:44:42;6.90;;;6.70;;
13605;SDS011;6874;52.084;5.090;2023-03-01T01:47:20;6.40;;;6.20;;
13605;SDS011;6874;52.084;5.090;2023-03-01T01:49:54;5.20;;;5.10;;
13605;SDS011;6874;52.084;5.090;2023-03-01T01:52:25;6.13;;;5.93;;
13605;SDS011;6874;52.084;5.090;2023-03-01T01:54:59;6.13;;;5.93;;
13605;SDS011;6874;52.084;5.090;2023-03-01T01:57:32;5.77;;;5.60;;
13605;SDS011;6874;52.084;5.090;2023-03-01T02:00:00;5.20;;;5.10;;
13605;SDS011;6874;52.084;5.090;2023-03-01T02:02:31;6.23;;;6.03;;
13605;SDS011;6874;52.084;5.090;2023-03-01T02:05:06;5.40;;;5.30;;
13605;SDS011;6874;52.084;5.090;2023-03-01T02:07:45;6.90;;;6.70;;
13605;SDS011;6874;52.084;5.090;2023-03-01T02:10:13;5.13;;;5.03;;
13605;SDS011;6874;52.084;5.090;2023-03-01T02:12:39;6.30;;;6.10;;
13605;SDS011;6874;52.084;5.090;2023-03-01T02:15:05;5.63;;;5.50;;
13605;SDS011;6874;52.084;5.090;2023-03-01T02:17:31;6.33;;;6.13;;
13605;SDS011;6874;52.084;5.090;2023-03-01T02:22:45;5.30;;;5.20;;
13605;SDS011;6874;52.084;5.090;2023-03-01T02:30:20;5.80;;;5.63;;
13605;SDS011;6874;52.084;5.090;2023-03-01T02:32:48;5.90;;;5.70;;
13605;SDS011;6874;52.084;5.090;2023-03-01T02:35:16;5.90;;;5.73;;
13605;SDS011;6874;52.084;5.090;2023-03-01T02:37:44;4.83;;;4.73;;
13605;SDS011;6874;52.084;5.090;2023-03-01T02:40:14;5.67;;;5.50;;
13605;SDS011;6874;52.084;5.090;2023-03-01T02:42:48;5.00;;;4.90;;
13605;SDS011;6874;52.084;5.090;2023-03-01T02:45:16;5.63;;;5.50;;
13605;SDS011;6874;52.084;5.090;2023-03-01T02:47:42;4.63;;;4.53;;
13605;SDS011;6874;52.084;5.090;2023-03-01T02:50:55;4.87;;;4.77;;
13605;SDS011;6874;52.084;5.090;2023-03-01T02:55:28;4.90;;;4.80;;
13605;SDS011;6874;52.084;5.090;2023-03-01T02:57:54;5.17;;;5.07;;
13605;SDS011;6874;52.084;5.090;2023-03-01T03:00:22;4.73;;;4.63;;
13605;SDS011;6874;52.084;5.090;2023-03-01T03:03:15;5.20;;;5.10;;
13605;SDS011;6874;52.084;5.090;2023-03-01T03:05:44;4.43;;;4.33;;
13605;SDS011;6874;52.084;5.090;2023-03-01T03:08:09;4.77;;;4.67;;
13605;SDS011;6874;52.084;5.090;2023-03-01T03:10:37;4.40;;;4.30;;
13605;SDS011;6874;52.084;5.090;2023-03-01T03:13:13;5.00;;;4.90;;
13605;SDS011;6874;52.084;5.090;2023-03-01T03:15:40;4.60;;;4.50;;
13605;SDS011;6874;52.084;5.090;2023-03-01T03:18:08;4.40;;;4.30;;
13605;SDS011;6874;52.084;5.090;2023-03-01T03:20:35;5.27;;;5.17;;
13605;SDS011;6874;52.084;5.090;2023-03-01T03:23:02;4.40;;;4.30;;
13605;SDS011;6874;52.084;5.090;2023-03-01T03:25:29;5.03;;;4.93;;
13605;SDS011;6874;52.084;5.090;2023-03-01T03:27:55;4.20;;;4.10;;
13605;SDS011;6874;52.084;5.090;2023-03-01T03:30:22;4.80;;;4.70;;
13605;SDS011;6874;52.084;5.090;2023-03-01T03:32:50;4.80;;;4.70;;
13605;SDS011;6874;52.084;5.090;2023-03-01T03:35:26;5.40;;;5.30;;
13605;SDS011;6874;52.084;5.090;2023-03-01T03:37:57;4.27;;;4.17;;
13605;SDS011;6874;52.084;5.090;2023-03-01T03:42:58;4.57;;;4.47;;
13605;SDS011;6874;52.084;5.090;2023-03-01T03:45:24;4.50;;;4.40;;
13605;SDS011;6874;52.084;5.090;2023-03-01T03:47:49;4.73;;;4.63;;
13605;SDS011;6874;52.084;5.090;2023-03-01T03:50:15;4.27;;;4.17;;
13605;SDS011;6874;52.084;5.090;2023-03-01T03:52:42;5.20;;;5.10;;
13605;SDS011;6874;52.084;5.090;2023-03-01T03:55:08;4.67;;;4.57;;
13605;SDS011;6874;52.084;5.090;2023-03-01T03:57:38;4.23;;;4.13;;
13605;SDS011;6874;52.084;5.090;2023-03-01T04:00:05;4.63;;;4.53;;
13605;SDS011;6874;52.084;5.090;2023-03-01T04:02:44;3.83;;;3.73;;
13605;SDS011;6874;52.084;5.090;2023-03-01T04:05:11;4.10;;;4.00;;
13605;SDS011;6874;52.084;5.090;2023-03-01T04:07:39;4.80;;;4.70;;
13605;SDS011;6874;52.084;5.090;2023-03-01T04:10:06;4.90;;;4.80;;
13605;SDS011;6874;52.084;5.090;2023-03-01T04:12:37;4.53;;;4.43;;
13605;SDS011;6874;52.084;5.090;2023-03-01T04:15:03;3.93;;;3.83;;
13605;SDS011;6874;52.084;5.090;2023-03-01T04:17:43;4.13;;;4.03;;
13605;SDS011;6874;52.084;5.090;2023-03-01T04:20:12;4.80;;;4.70;;
13605;SDS011;6874;52.084;5.090;2023-03-01T04:22:42;3.80;;;3.70;;
13605;SDS011;6874;52.084;5.090;2023-03-01T04:25:11;4.30;;;4.20;;
13605;SDS011;6874;52.084;5.090;2023-03-01T04:27:39;4.13;;;4.03;;
13605;SDS011;6874;52.084;5.090;2023-03-01T04:30:05;4.13;;;4.03;;
13605;SDS011;6874;52.084;5.090;2023-03-01T04:32:32;4.80;;;4.70;;
13605;SDS011;6874;52.084;5.090;2023-03-01T04:34:57;4.47;;;4.37;;
13605;SDS011;6874;52.084;5.090;2023-03-01T04:37:23;4.30;;;4.20;;
13605;SDS011;6874;52.084;5.090;2023-03-01T04:39:52;4.70;;;4.60;;
13605;SDS011;6874;52.084;5.090;2023-03-01T04:42:18;4.03;;;3.93;;
13605;SDS011;6874;52.084;5.090;2023-03-01T04:44:44;4.67;;;4.57;;
13605;SDS011;6874;52.084;5.090;2023-03-01T04:47:10;4.23;;;4.13;;
13605;SDS011;6874;52.084;5.090;2023-03-01T04:49:36;4.10;;;4.00;;
13605;SDS011;6874;52.084;5.090;2023-03-01T04:52:02;5.00;;;4.90;;
13605;SDS011;6874;52.084;5.090;2023-03-01T04:54:29;4.60;;;4.50;;
13605;SDS011;6874;52.084;5.090;2023-03-01T04:56:55;4.07;;;3.97;;
13605;SDS011;6874;52.084;5.090;2023-03-01T04:59:21;4.37;;;4.27;;
13605;SDS011;6874;52.084;5.090;2023-03-01T05:01:47;3.67;;;3.57;;
13605;SDS011;6874;52.084;5.090;2023-03-01T05:04:17;4.40;;;4.30;;
13605;SDS011;6874;52.084;5.090;2023-03-01T05:06:43;3.80;;;3.70;;
13605;SDS011;6874;52.084;5.090;2023-03-01T05:09:09;3.93;;;3.83;;
13605;SDS011;6874;52.084;5.090;2023-03-01T05:11:36;4.57;;;4.47;;
13605;SDS011;6874;52.084;5.090;2023-03-01T05:14:02;4.63;;;4.53;;
13605;SDS011;6874;52.084;5.090;2023-03-01T05:16:28;4.63;;;4.53;;
13605;SDS011;6874;52.084;5.090;2023-03-01T05:18:55;4.40;;;4.30;;
13605;SDS011;6874;52.084;5.090;2023-03-01T05:21:21;4.10;;;4.00;;
13605;SDS011;6874;52.084;5.090;2023-03-01T05:23:47;4.63;;;4.53;;
13605;SDS011;6874;52.084;5.090;2023-03-01T05:26:13;4.20;;;4.10;;
13605;SDS011;6874;52.084;5.090;2023-03-01T05:28:40;3.40;;;3.30;;
13605;SDS011;6874;52.084;5.090;2023-03-01T05:31:06;4.63;;;4.53;;
13605;SDS011;6874;52.084;5.090;2023-03-01T05:33:35;5.13;;;5.03;;
13605;SDS011;6874;52.084;5.090;2023-03-01T05:36:02;4.17;;;4.07;;
13605;SDS011;6874;52.084;5.090;2023-03-01T05:38:28;4.27;;;4.17;;
13605;SDS011;6874;52.084;5.090;2023-03-01T05:40:53;3.77;;;3.67;;
13605;SDS011;6874;52.084;5.090;2023-03-01T05:43:19;4.13;;;4.03;;
13605;SDS011;6874;52.084;5.090;2023-03-01T05:45:44;4.40;;;4.30;;
13605;SDS011;6874;52.084;5.090;2023-03-01T05:48:11;4.67;;;4.57;;
13605;SDS011;6874;52.084;5.090;2023-03-01T05:50:40;3.90;;;3.80;;
13605;SDS011;6874;52.084;5.090;2023-03-01T05:55:39;4.77;;;4.67;;
13605;SDS011;6874;52.084;5.090;2023-03-01T05:58:10;4.93;;;4.83;;
13605;SDS011;6874;52.084;5.090;2023-03-01T06:00:38;3.80;;;3.70;;
13605;SDS011;6874;52.084;5.090;2023-03-01T06:03:04;3.60;;;3.50;;
13605;SDS011;6874;52.084;5.090;2023-03-01T06:05:30;4.60;;;4.50;;
13605;SDS011;6874;52.084;5.090;2023-03-01T06:07:58;4.90;;;4.80;;
13605;SDS011;6874;52.084;5.090;2023-03-01T06:10:24;4.90;;;4.80;;
13605;SDS011;6874;52.084;5.090;2023-03-01T06:12:50;4.83;;;4.73;;
13605;SDS011;6874;52.084;5.090;2023-03-01T06:15:16;5.07;;;4.97;;
13605;SDS011;6874;52.084;5.090;2023-03-01T06:17:42;4.20;;;4.10;;
13605;SDS011;6874;52.084;5.090;2023-03-01T06:20:11;4.43;;;4.33;;
13605;SDS011;6874;52.084;5.090;2023-03-01T06:22:45;4.50;;;4.40;;
13605;SDS011;6874;52.084;5.090;2023-03-01T06:25:12;4.30;;;4.20;;
13605;SDS011;6874;52.084;5.090;2023-03-01T06:27:39;3.40;;;3.30;;
13605;SDS011;6874;52.084;5.090;2023-03-01T06:30:06;3.90;;;3.80;;
13605;SDS011;6874;52.084;5.090;2023-03-01T06:32:32;4.17;;;4.07;;
13605;SDS011;6874;52.084;5.090;2023-03-01T06:34:58;4.20;;;4.10;;
13605;SDS011;6874;52.084;5.090;2023-03-01T06:37:24;4.20;;;4.10;;
13605;SDS011;6874;52.084;5.090;2023-03-01T06:39:50;4.40;;;4.30;;
13605;SDS011;6874;52.084;5.090;2023-03-01T06:42:16;4.90;;;4.80;;
13605;SDS011;6874;52.084;5.090;2023-03-01T06:44:41;4.27;;;4.17;;
13605;SDS011;6874;52.084;5.090;2023-03-01T06:47:08;4.37;;;4.27;;
13605;SDS011;6874;52.084;5.090;2023-03-01T06:49:34;5.00;;;4.90;;
13605;SDS011;6874;52.084;5.090;2023-03-01T06:51:59;5.00;;;4.90;;
13605;SDS011;6874;52.084;5.090;2023-03-01T06:54:25;4.97;;;4.87;;
13605;SDS011;6874;52.084;5.090;2023-03-01T06:56:50;3.90;;;3.80;;
13605;SDS011;6874;52.084;5.090;2023-03-01T06:59:16;4.57;;;4.47;;
13605;SDS011;6874;52.084;5.090;2023-03-01T07:01:42;4.60;;;4.50;;
13605;SDS011;6874;52.084;5.090;2023-03-01T07:04:09;4.30;;;4.20;;
13605;SDS011;6874;52.084;5.090;2023-03-01T07:06:35;4.27;;;4.17;;
13605;SDS011;6874;52.084;5.090;2023-03-01T07:09:00;4.40;;;4.30;;
13605;SDS011;6874;52.084;5.090;2023-03-01T07:11:26;4.50;;;4.40;;
13605;SDS011;6874;52.084;5.090;2023-03-01T07:13:52;4.10;;;4.00;;
13605;SDS011;6874;52.084;5.090;2023-03-01T07:16:17;4.73;;;4.63;;
13605;SDS011;6874;52.084;5.090;2023-03-01T07:18:43;4.53;;;4.43;;
13605;SDS011;6874;52.084;5.090;2023-03-01T07:21:09;4.40;;;4.30;;
13605;SDS011;6874;52.084;5.090;2023-03-01T07:23:38;4.80;;;4.70;;
13605;SDS011;6874;52.084;5.090;2023-03-01T07:26:04;4.37;;;4.27;;
13605;SDS011;6874;52.084;5.090;2023-03-01T07:28:29;4.70;;;4.60;;
13605;SDS011;6874;52.084;5.090;2023-03-01T07:31:00;5.20;;;5.10;;
13605;SDS011;6874;52.084;5.090;2023-03-01T07:33:29;4.00;;;3.90;;
13605;SDS011;6874;52.084;5.090;2023-03-01T07:35:55;4.40;;;4.30;;
13605;SDS011;6874;52.084;5.090;2023-03-01T07:38:22;4.60;;;4.50;;
13605;SDS011;6874;52.084;5.090;2023-03-01T07:40:48;4.50;;;4.40;;
13605;SDS011;6874;52.084;5.090;2023-03-01T07:43:14;4.53;;;4.43;;
13605;SDS011;6874;52.084;5.090;2023-03-01T07:45:39;4.50;;;4.40;;
13605;SDS011;6874;52.084;5.090;2023-03-01T07:48:05;4.60;;;4.50;;
13605;SDS011;6874;52.084;5.090;2023-03-01T07:50:30;5.20;;;5.10;;
13605;SDS011;6874;52.084;5.090;2023-03-01T07:52:56;4.40;;;4.30;;
13605;SDS011;6874;52.084;5.090;2023-03-01T07:55:22;4.67;;;4.57;;
13605;SDS011;6874;52.084;5.090;2023-03-01T07:57:47;4.43;;;4.33;;
13605;SDS011;6874;52.084;5.090;2023-03-01T08:00:13;4.50;;;4.40;;
13605;SDS011;6874;52.084;5.090;2023-03-01T08:02:39;4.43;;;4.33;;
13605;SDS011;6874;52.084;5.090;2023-03-01T08:05:06;5.33;;;5.23;;
13605;SDS011;6874;52.084;5.090;2023-03-01T08:07:33;4.40;;;4.30;;
13605;SDS011;6874;52.084;5.090;2023-03-01T08:09:59;5.60;;;5.50;;
13605;SDS011;6874;52.084;5.090;2023-03-01T08:12:25;4.47;;;4.37;;
13605;SDS011;6874;52.084;5.090;2023-03-01T08:14:52;5.90;;;5.70;;
13605;SDS011;6874;52.084;5.090;2023-03-01T08:17:18;4.90;;;4.80;;
13605;SDS011;6874;52.084;5.090;2023-03-01T08:19:44;4.60;;;4.50;;
13605;SDS011;6874;52.084;5.090;2023-03-01T08:22:10;5.90;;;5.70;;
13605;SDS011;6874;52.084;5.090;2023-03-01T08:24:35;4.60;;;4.50;;
13605;SDS011;6874;52.084;5.090;2023-03-01T08:27:01;5.53;;;5.43;;
13605;SDS011;6874;52.084;5.090;2023-03-01T08:29:27;5.10;;;5.00;;
13605;SDS011;6874;52.084;5.090;2023-03-01T08:31:55;4.90;;;4.80;;
13605;SDS011;6874;52.084;5.090;2023-03-01T08:34:20;5.10;;;5.00;;
13605;SDS011;6874;52.084;5.090;2023-03-01T08:36:46;5.17;;;5.07;;
13605;SDS011;6874;52.084;5.090;2023-03-01T08:39:13;4.60;;;4.50;;
13605;SDS011;6874;52.084;5.090;2023-03-01T08:41:40;4.83;;;4.73;;
13605;SDS011;6874;52.084;5.090;2023-03-01T08:44:06;4.90;;;4.80;;
13605;SDS011;6874;52.084;5.090;2023-03-01T08:46:33;6.63;;;6.43;;
13605;SDS011;6874;52.084;5.090;2023-03-01T08:49:02;6.87;;;6.67;;
13605;SDS011;6874;52.084;5.090;2023-03-01T08:51:38;6.00;;;5.80;;
13605;SDS011;6874;52.084;5.090;2023-03-01T08:54:05;6.43;;;6.23;;
13605;SDS011;6874;52.084;5.090;2023-03-01T08:56:32;5.57;;;5.47;;
13605;SDS011;6874;52.084;5.090;2023-03-01T08:58:58;6.20;;;6.00;;
13605;SDS011;6874;52.084;5.090;2023-03-01T09:01:24;5.90;;;5.70;;
13605;SDS011;6874;52.084;5.090;2023-03-01T09:03:50;6.87;;;6.67;;
13605;SDS011;6874;52.084;5.090;2023-03-01T09:06:16;6.03;;;5.83;;
13605;SDS011;6874;52.084;5.090;2023-03-01T09:08:42;4.70;;;4.60;;
13605;SDS011;6874;52.084;5.090;2023-03-01T09:11:10;5.60;;;5.47;;
13605;SDS011;6874;52.084;5.090;2023-03-01T09:13:37;5.10;;;5.00;;
13605;SDS011;6874;52.084;5.090;2023-03-01T09:16:04;6.97;;;6.77;;
13605;SDS011;6874;52.084;5.090;2023-03-01T09:18:31;7.03;;;6.83;;
13605;SDS011;6874;52.084;5.090;2023-03-01T09:21:07;4.93;;;4.83;;
13605;SDS011;6874;52.084;5.090;2023-03-01T09:23:36;6.03;;;5.83;;
13605;SDS011;6874;52.084;5.090;2023-03-01T09:26:04;7.87;;;7.67;;
13605;SDS011;6874;52.084;5.090;2023-03-01T09:28:41;4.47;;;4.37;;
13605;SDS011;6874;52.084;5.090;2023-03-01T09:31:08;7.10;;;6.90;;
13605;SDS011;6874;52.084;5.090;2023-03-01T09:33:33;5.77;;;5.60;;
13605;SDS011;6874;52.084;5.090;2023-03-01T09:36:02;4.53;;;4.43;;
13605;SDS011;6874;52.084;5.090;2023-03-01T09:38:30;5.40;;;5.30;;
13605;SDS011;6874;52.084;5.090;2023-03-01T09:40:56;5.93;;;5.73;;
13605;SDS011;6874;52.084;5.090;2023-03-01T09:43:39;6.57;;;6.37;;
13605;SDS011;6874;52.084;5.090;2023-03-01T09:46:19;4.63;;;4.53;;
13605;SDS011;6874;52.084;5.090;2023-03-01T09:49:06;5.10;;;5.00;;
13605;SDS011;6874;52.084;5.090;2023-03-01T09:51:37;6.10;;;5.90;;
13605;SDS011;6874;52.084;5.090;2023-03-01T09:54:03;7.03;;;6.83;;
13605;SDS011;6874;52.084;5.090;2023-03-01T09:56:34;5.53;;;5.43;;
13605;SDS011;6874;52.084;5.090;2023-03-01T09:59:14;7.10;;;6.90;;
13605;SDS011;6874;52.084;5.090;2023-03-01T10:04:41;5.30;;;5.20;;
13605;SDS011;6874;52.084;5.090;2023-03-01T10:10:32;4.60;;;4.50;;
13605;SDS011;6874;52.084;5.090;2023-03-01T10:13:06;6.47;;;6.27;;
13605;SDS011;6874;52.084;5.090;2023-03-01T10:15:42;6.33;;;6.13;;
13605;SDS011;6874;52.084;5.090;2023-03-01T10:18:12;7.10;;;6.90;;
13605;SDS011;6874;52.084;5.090;2023-03-01T10:20:57;4.93;;;4.83;;
13605;SDS011;6874;52.084;5.090;2023-03-01T10:23:32;7.67;;;7.47;;
13605;SDS011;6874;52.084;5.090;2023-03-01T10:26:09;7.17;;;6.97;;
13605;SDS011;6874;52.084;5.090;2023-03-01T10:28:54;6.87;;;6.67;;
13605;SDS011;6874;52.084;5.090;2023-03-01T10:31:25;4.90;;;4.80;;
13605;SDS011;6874;52.084;5.090;2023-03-01T10:34:02;7.17;;;6.97;;
13605;SDS011;6874;52.084;5.090;2023-03-01T10:36:39;6.37;;;6.17;;
13605;SDS011;6874;52.084;5.090;2023-03-01T10:39:11;6.40;;;6.20;;
13605;SDS011;6874;52.084;5.090;2023-03-01T10:41:52;7.70;;;7.50;;
13605;SDS011;6874;52.084;5.090;2023-03-01T10:47:03;6.63;;;6.43;;
13605;SDS011;6874;52.084;5.090;2023-03-01T10:49:29;6.97;;;6.77;;
13605;SDS011;6874;52.084;5.090;2023-03-01T10:51:54;6.90;;;6.70;;
13605;SDS011;6874;52.084;5.090;2023-03-01T10:54:28;7.73;;;7.53;;
13605;SDS011;6874;52.084;5.090;2023-03-01T10:56:55;7.00;;;6.80;;
13605;SDS011;6874;52.084;5.090;2023-03-01T10:59:30;8.80;;;8.57;;
13605;SDS011;6874;52.084;5.090;2023-03-01T11:05:02;7.83;;;7.63;;
13605;SDS011;6874;52.084;5.090;2023-03-01T11:07:47;8.10;;;7.90;;
13605;SDS011;6874;52.084;5.090;2023-03-01T11:10:24;8.43;;;8.23;;
13605;SDS011;6874;52.084;5.090;2023-03-01T11:13:17;9.57;;;9.27;;
13605;SDS011;6874;52.084;5.090;2023-03-01T11:18:26;8.70;;;8.47;;
13605;SDS011;6874;52.084;5.090;2023-03-01T11:20:54;9.43;;;9.13;;
13605;SDS011;6874;52.084;5.090;2023-03-01T11:23:20;9.57;;;9.27;;
13605;SDS011;6874;52.084;5.090;2023-03-01T11:25:55;8.97;;;8.70;;
13605;SDS011;6874;52.084;5.090;2023-03-01T11:28:22;8.87;;;8.60;;
13605;SDS011;6874;52.084;5.090;2023-03-01T11:33:48;10.90;;;10.60;;
13605;SDS011;6874;52.084;5.090;2023-03-01T11:36:58;13.77;;;13.37;;
13605;SDS011;6874;52.084;5.090;2023-03-01T11:39:31;11.90;;;11.53;;
13605;SDS011;6874;52.084;5.090;2023-03-01T11:42:18;9.20;;;8.90;;
13605;SDS011;6874;52.084;5.090;2023-03-01T11:45:09;5.87;;;5.67;;
13605;SDS011;6874;52.084;5.090;2023-03-01T11:50:24;4.20;;;4.10;;
13605;SDS011;6874;52.084;5.090;2023-03-01T11:53:03;7.30;;;7.10;;
13605;SDS011;6874;52.084;5.090;2023-03-01T12:02:11;16.17;;;15.67;;
13605;SDS011;6874;52.084;5.090;2023-03-01T12:18:04;12.60;;;12.20;;
13605;SDS011;6874;52.084;5.090;2023-03-01T12:20:41;11.13;;;10.83;;
13605;SDS011;6874;52.084;5.090;2023-03-01T12:31:30;15.63;;;15.13;;
13605;SDS011;6874;52.084;5.090;2023-03-01T12:34:16;14.17;;;13.77;;
13605;SDS011;6874;52.084;5.090;2023-03-01T12:37:21;14.43;;;14.03;;
13605;SDS011;6874;52.084;5.090;2023-03-01T12:45:26;19.40;;;18.80;;
13605;SDS011;6874;52.084;5.090;2023-03-01T12:48:24;22.93;;;22.23;;
13605;SDS011;6874;52.084;5.090;2023-03-01T12:50:58;17.70;;;17.20;;
13605;SDS011;6874;52.084;5.090;2023-03-01T12:53:28;14.20;;;13.80;;
13605;SDS011;6874;52.084;5.090;2023-03-01T12:56:31;12.63;;;12.23;;
13605;SDS011;6874;52.084;5.090;2023-03-01T13:04:51;8.00;;;7.80;;
13605;SDS011;6874;52.084;5.090;2023-03-01T13:07:23;7.67;;;7.47;;
13605;SDS011;6874;52.084;5.090;2023-03-01T13:15:35;6.20;;;6.00;;
13605;SDS011;6874;52.084;5.090;2023-03-01T13:20:45;6.40;;;6.20;;
13605;SDS011;6874;52.084;5.090;2023-03-01T13:31:03;7.33;;;7.13;;
13605;SDS011;6874;52.084;5.090;2023-03-01T13:35:59;6.17;;;6.00;;
13605;SDS011;6874;52.084;5.090;2023-03-01T13:38:38;6.67;;;6.47;;
13605;SDS011;6874;52.084;5.090;2023-03-01T13:49:35;7.43;;;7.23;;
13605;SDS011;6874;52.084;5.090;2023-03-01T13:52:13;6.70;;;6.50;;
13605;SDS011;6874;52.084;5.090;2023-03-01T13:57:38;7.20;;;7.00;;
13605;SDS011;6874;52.084;5.090;2023-03-01T14:00:05;8.10;;;7.90;;
13605;SDS011;6874;52.084;5.090;2023-03-01T14:02:31;7.90;;;7.70;;
13605;SDS011;6874;52.084;5.090;2023-03-01T14:04:59;7.97;;;7.77;;
13605;SDS011;6874;52.084;5.090;2023-03-01T14:07:26;8.67;;;8.43;;
13605;SDS011;6874;52.084;5.090;2023-03-01T14:10:02;9.77;;;9.47;;
13605;SDS011;6874;52.084;5.090;2023-03-01T14:12:35;10.77;;;10.47;;
13605;SDS011;6874;52.084;5.090;2023-03-01T14:22:49;18.23;;;17.67;;
13605;SDS011;6874;52.084;5.090;2023-03-01T14:28:23;19.10;;;18.53;;
13605;SDS011;6874;52.084;5.090;2023-03-01T14:30:55;16.87;;;16.33;;
13605;SDS011;6874;52.084;5.090;2023-03-01T14:35:55;28.60;;;27.70;;
13605;SDS011;6874;52.084;5.090;2023-03-01T14:38:38;33.13;;;32.03;;
13605;SDS011;6874;52.084;5.090;2023-03-01T14:41:09;29.13;;;28.17;;
13605;SDS011;6874;52.084;5.090;2023-03-01T14:43:50;27.43;;;26.53;;
13605;SDS011;6874;52.084;5.090;2023-03-01T14:46:24;32.67;;;31.60;;
13605;SDS011;6874;52.084;5.090;2023-03-01T14:48:57;30.90;;;29.93;;
13605;SDS011;6874;52.084;5.090;2023-03-01T14:51:27;32.03;;;31.03;;
13605;SDS011;6874;52.084;5.090;2023-03-01T14:53:53;29.30;;;28.37;;
13605;SDS011;6874;52.084;5.090;2023-03-01T14:56:19;36.40;;;35.20;;
13605;SDS011;6874;52.084;5.090;2023-03-01T14:58:45;34.20;;;33.10;;
13605;SDS011;6874;52.084;5.090;2023-03-01T15:01:15;34.40;;;33.30;;
13605;SDS011;6874;52.084;5.090;2023-03-01T15:03:46;38.87;;;37.63;;
13605;SDS011;6874;52.084;5.090;2023-03-01T15:06:21;40.30;;;39.00;;
13605;SDS011;6874;52.084;5.090;2023-03-01T15:08:48;34.67;;;33.57;;
13605;SDS011;6874;52.084;5.090;2023-03-01T15:11:20;30.83;;;29.83;;
13605;SDS011;6874;52.084;5.090;2023-03-01T15:13:57;37.93;;;36.73;;
13605;SDS011;6874;52.084;5.090;2023-03-01T15:16:27;56.40;;;54.60;;
13605;SDS011;6874;52.084;5.090;2023-03-01T15:19:02;66.13;;;64.00;;
13605;SDS011;6874;52.084;5.090;2023-03-01T15:21:34;73.00;;;70.63;;
13605;SDS011;6874;52.084;5.090;2023-03-01T15:26:49;70.60;;;68.30;;
13605;SDS011;6874;52.084;5.090;2023-03-01T15:29:19;74.73;;;72.30;;
13605;SDS011;6874;52.084;5.090;2023-03-01T15:31:59;79.23;;;76.60;;
13605;SDS011;6874;52.084;5.090;2023-03-01T15:34:32;83.50;;;80.77;;
13605;SDS011;6874;52.084;5.090;2023-03-01T15:37:02;88.03;;;85.10;;
13605;SDS011;6874;52.084;5.090;2023-03-01T15:39:43;94.17;;;90.93;;
13605;SDS011;6874;52.084;5.090;2023-03-01T15:47:38;24.20;;;23.43;;
13605;SDS011;6874;52.084;5.090;2023-03-01T15:50:05;16.90;;;16.40;;
13605;SDS011;6874;52.084;5.090;2023-03-01T15:52:40;16.30;;;15.80;;
13605;SDS011;6874;52.084;5.090;2023-03-01T16:00:37;22.60;;;21.90;;
13605;SDS011;6874;52.084;5.090;2023-03-01T16:03:04;32.20;;;31.20;;
13605;SDS011;6874;52.084;5.090;2023-03-01T16:05:31;41.93;;;40.60;;
13605;SDS011;6874;52.084;5.090;2023-03-01T16:07:59;64.77;;;62.63;;
13605;SDS011;6874;52.084;5.090;2023-03-01T16:10:25;72.17;;;69.77;;
13605;SDS011;6874;52.084;5.090;2023-03-01T16:12:51;75.30;;;72.80;;
13605;SDS011;6874;52.084;5.090;2023-03-01T16:15:18;87.30;;;84.40;;
13605;SDS011;6874;52.084;5.090;2023-03-01T16:17:44;100.63;;;97.33;;
13605;SDS011;6874;52.084;5.090;2023-03-01T16:20:10;94.60;;;91.43;;
13605;SDS011;6874;52.084;5.090;2023-03-01T16:22:36;87.73;;;84.80;;
13605;SDS011;6874;52.084;5.090;2023-03-01T16:25:02;91.13;;;88.13;;
13605;SDS011;6874;52.084;5.090;2023-03-01T16:27:28;84.60;;;81.80;;
13605;SDS011;6874;52.084;5.090;2023-03-01T16:29:54;77.60;;;75.03;;
13605;SDS011;6874;52.084;5.090;2023-03-01T16:32:19;71.97;;;69.57;;
13605;SDS011;6874;52.084;5.090;2023-03-01T16:34:45;75.87;;;73.37;;
13605;SDS011;6874;52.084;5.090;2023-03-01T16:37:14;64.43;;;62.33;;
13605;SDS011;6874;52.084;5.090;2023-03-01T16:39:39;59.27;;;57.33;;
13605;SDS011;6874;52.084;5.090;2023-03-01T16:42:05;49.23;;;47.60;;
13605;SDS011;6874;52.084;5.090;2023-03-01T16:44:31;53.67;;;51.90;;
13605;SDS011;6874;52.084;5.090;2023-03-01T16:46:56;48.77;;;47.17;;
13605;SDS011;6874;52.084;5.090;2023-03-01T16:49:22;49.23;;;47.60;;
13605;SDS011;6874;52.084;5.090;2023-03-01T16:51:47;49.40;;;47.77;;
13605;SDS011;6874;52.084;5.090;2023-03-01T16:54:13;53.03;;;51.33;;
13605;SDS011;6874;52.084;5.090;2023-03-01T16:56:38;47.00;;;45.47;;
13605;SDS011;6874;52.084;5.090;2023-03-01T16:59:04;36.17;;;35.00;;
13605;SDS011;6874;52.084;5.090;2023-03-01T17:01:31;34.77;;;33.67;;
13605;SDS011;6874;52.084;5.090;2023-03-01T17:04:05;35.03;;;33.90;;
13605;SDS011;6874;52.084;5.090;2023-03-01T17:06:35;34.23;;;33.13;;
13605;SDS011;6874;52.084;5.090;2023-03-01T17:09:00;29.77;;;28.83;;
13605;SDS011;6874;52.084;5.090;2023-03-01T17:11:26;30.20;;;29.23;;
13605;SDS011;6874;52.084;5.090;2023-03-01T17:13:51;25.70;;;24.90;;
13605;SDS011;6874;52.084;5.090;2023-03-01T17:16:18;23.90;;;23.13;;
13605;SDS011;6874;52.084;5.090;2023-03-01T17:18:44;21.03;;;20.37;;
13605;SDS011;6874;52.084;5.090;2023-03-01T17:21:11;12.40;;;12.03;;